sensor_id;sensor_type;location;lat;lon;timestamp;pressure;altitude;pressure_sealevel;temperature;humidity
55277;BME280;41136;51.478;-2.610;2023-07-22T00:01:32;100576.09;;;17.21;100.00
55277;BME280;41136;51.478;-2.610;2023-07-22T00:03:57;100573.17;;;17.03;100.00
55277;BME280;41136;51.478;-2.610;2023-07-22T00:06:22;100572.70;;;16.25;100.00
55277;BME280;41136;51.478;-2.610;2023-07-22T00:08:47;100573.25;;;16.92;100.00
55277;BME280;41136;51.478;-2.610;2023-07-22T00:11:13;100569.89;;;16.97;100.00
55277;BME280;41136;51.478;-2.610;2023-07-22T00:13:38;100568.45;;;16.88;100.00
55277;BME280;41136;51.478;-2.610;2023-07-22T00:16:03;100567.29;;;17.17;100.00
55277;BME280;41136;51.478;-2.610;2023-07-22T00:18:29;100559.72;;;18.16;100.00
55277;BME280;41136;51.478;-2.610;2023-07-22T00:20:54;100564.54;;;17.91;100.00
55277;BME280;41136;51.478;-2.610;2023-07-22T00:23:19;100562.56;;;17.82;99.96
55277;BME280;41136;51.478;-2.610;2023-07-22T00:25:44;100555.68;;;18.51;98.20
55277;BME280;41136;51.478;-2.610;2023-07-22T00:28:10;100555.64;;;17.60;99.48
55277;BME280;41136;51.478;-2.610;2023-07-22T00:30:35;100550.49;;;18.03;97.59
55277;BME280;41136;51.478;-2.610;2023-07-22T00:33:00;100549.58;;;18.91;95.60
55277;BME280;41136;51.478;-2.610;2023-07-22T00:35:26;100548.26;;;18.37;96.58
55277;BME280;41136;51.478;-2.610;2023-07-22T00:37:51;100545.88;;;17.89;99.49
55277;BME280;41136;51.478;-2.610;2023-07-22T00:40:16;100542.75;;;18.11;98.58
55277;BME280;41136;51.478;-2.610;2023-07-22T00:42:41;100543.69;;;18.10;98.79
55277;BME280;41136;51.478;-2.610;2023-07-22T00:45:07;100539.88;;;18.59;98.28
55277;BME280;41136;51.478;-2.610;2023-07-22T00:47:32;100536.51;;;18.86;95.48
55277;BME280;41136;51.478;-2.610;2023-07-22T00:49:58;100536.17;;;19.40;94.73
55277;BME280;41136;51.478;-2.610;2023-07-22T00:52:23;100533.73;;;19.37;94.67
55277;BME280;41136;51.478;-2.610;2023-07-22T00:54:48;100528.92;;;19.09;94.92
55277;BME280;41136;51.478;-2.610;2023-07-22T00:57:15;100519.48;;;19.64;93.56
55277;BME280;41136;51.478;-2.610;2023-07-22T00:59:39;100523.01;;;18.64;96.94
55277;BME280;41136;51.478;-2.610;2023-07-22T01:05:01;100518.02;;;18.90;94.51
55277;BME280;41136;51.478;-2.610;2023-07-22T01:07:26;100510.63;;;19.14;92.25
55277;BME280;41136;51.478;-2.610;2023-07-22T01:09:56;100510.52;;;18.79;93.62
55277;BME280;41136;51.478;-2.610;2023-07-22T01:12:17;100508.69;;;18.72;91.97
55277;BME280;41136;51.478;-2.610;2023-07-22T01:14:42;100504.33;;;19.60;92.24
55277;BME280;41136;51.478;-2.610;2023-07-22T01:17:09;100501.42;;;18.78;94.50
55277;BME280;41136;51.478;-2.610;2023-07-22T01:19:33;100497.45;;;18.37;95.72
55277;BME280;41136;51.478;-2.610;2023-07-22T01:22:00;100497.37;;;18.69;95.65
55277;BME280;41136;51.478;-2.610;2023-07-22T01:24:24;100499.21;;;18.30;96.79
55277;BME280;41136;51.478;-2.610;2023-07-22T01:26:48;100490.35;;;18.39;97.15
55277;BME280;41136;51.478;-2.610;2023-07-22T01:29:14;100490.50;;;18.19;97.73
55277;BME280;41136;51.478;-2.610;2023-07-22T01:31:40;100483.53;;;18.59;96.11
55277;BME280;41136;51.478;-2.610;2023-07-22T01:34:04;100477.69;;;18.39;96.28
55277;BME280;41136;51.478;-2.610;2023-07-22T01:36:30;100477.92;;;18.25;97.03
55277;BME280;41136;51.478;-2.610;2023-07-22T01:38:55;100477.08;;;17.84;98.82
55277;BME280;41136;51.478;-2.610;2023-07-22T01:41:20;100469.36;;;18.68;95.86
55277;BME280;41136;51.478;-2.610;2023-07-22T01:43:45;100471.90;;;17.99;97.52
55277;BME280;41136;51.478;-2.610;2023-07-22T01:46:11;100467.74;;;18.57;97.16
55277;BME280;41136;51.478;-2.610;2023-07-22T01:48:36;100462.54;;;18.98;95.62
55277;BME280;41136;51.478;-2.610;2023-07-22T01:51:01;100461.77;;;18.68;96.65
55277;BME280;41136;51.478;-2.610;2023-07-22T01:53:27;100461.39;;;18.03;98.42
55277;BME280;41136;51.478;-2.610;2023-07-22T01:55:52;100457.98;;;18.01;98.07
55277;BME280;41136;51.478;-2.610;2023-07-22T01:58:17;100456.86;;;18.31;96.66
55277;BME280;41136;51.478;-2.610;2023-07-22T02:00:42;100454.88;;;18.07;97.63
55277;BME280;41136;51.478;-2.610;2023-07-22T02:03:08;100450.38;;;17.22;100.00
55277;BME280;41136;51.478;-2.610;2023-07-22T02:05:33;100447.31;;;17.83;98.93
55277;BME280;41136;51.478;-2.610;2023-07-22T02:07:58;100445.10;;;17.40;100.00
55277;BME280;41136;51.478;-2.610;2023-07-22T02:10:24;100440.03;;;18.22;99.88
55277;BME280;41136;51.478;-2.610;2023-07-22T02:12:49;100430.97;;;18.08;98.99
55277;BME280;41136;51.478;-2.610;2023-07-22T02:15:14;100427.07;;;18.30;98.25
55277;BME280;41136;51.478;-2.610;2023-07-22T02:17:40;100426.48;;;18.58;97.77
55277;BME280;41136;51.478;-2.610;2023-07-22T02:20:06;100428.54;;;18.07;98.39
55277;BME280;41136;51.478;-2.610;2023-07-22T02:22:30;100424.60;;;18.13;99.85
55277;BME280;41136;51.478;-2.610;2023-07-22T02:24:55;100422.74;;;17.91;99.67
55277;BME280;41136;51.478;-2.610;2023-07-22T02:27:21;100422.11;;;18.22;97.75
55277;BME280;41136;51.478;-2.610;2023-07-22T02:29:46;100420.84;;;17.59;99.65
55277;BME280;41136;51.478;-2.610;2023-07-22T02:32:11;100421.31;;;17.90;98.98
55277;BME280;41136;51.478;-2.610;2023-07-22T02:34:37;100420.97;;;18.09;98.24
55277;BME280;41136;51.478;-2.610;2023-07-22T02:37:02;100417.94;;;18.46;97.04
55277;BME280;41136;51.478;-2.610;2023-07-22T02:39:27;100422.85;;;18.33;97.44
55277;BME280;41136;51.478;-2.610;2023-07-22T02:41:52;100417.73;;;18.61;96.31
55277;BME280;41136;51.478;-2.610;2023-07-22T02:44:18;100415.24;;;18.95;95.31
55277;BME280;41136;51.478;-2.610;2023-07-22T02:46:43;100412.82;;;18.56;94.24
55277;BME280;41136;51.478;-2.610;2023-07-22T02:49:08;100409.99;;;18.68;94.63
55277;BME280;41136;51.478;-2.610;2023-07-22T02:51:34;100414.31;;;18.21;95.83
55277;BME280;41136;51.478;-2.610;2023-07-22T02:53:59;100411.30;;;18.13;96.37
55277;BME280;41136;51.478;-2.610;2023-07-22T02:56:24;100403.42;;;18.77;94.11
55277;BME280;41136;51.478;-2.610;2023-07-22T02:58:50;100407.90;;;18.27;94.63
55277;BME280;41136;51.478;-2.610;2023-07-22T03:01:15;100397.28;;;18.53;93.75
55277;BME280;41136;51.478;-2.610;2023-07-22T03:03:40;100398.42;;;17.89;94.82
55277;BME280;41136;51.478;-2.610;2023-07-22T03:06:05;100399.12;;;18.00;93.79
55277;BME280;41136;51.478;-2.610;2023-07-22T03:08:31;100396.35;;;18.10;93.23
55277;BME280;41136;51.478;-2.610;2023-07-22T03:10:56;100386.61;;;18.16;93.80
55277;BME280;41136;51.478;-2.610;2023-07-22T03:13:22;100382.57;;;18.55;92.30
55277;BME280;41136;51.478;-2.610;2023-07-22T03:15:47;100384.28;;;18.32;92.35
55277;BME280;41136;51.478;-2.610;2023-07-22T03:18:13;100384.87;;;17.54;94.07
55277;BME280;41136;51.478;-2.610;2023-07-22T03:20:38;100380.23;;;18.50;92.50
55277;BME280;41136;51.478;-2.610;2023-07-22T03:23:03;100383.27;;;18.65;92.91
55277;BME280;41136;51.478;-2.610;2023-07-22T03:25:28;100388.56;;;18.06;93.05
55277;BME280;41136;51.478;-2.610;2023-07-22T03:27:54;100383.56;;;18.20;92.64
55277;BME280;41136;51.478;-2.610;2023-07-22T03:30:22;100385.30;;;18.09;92.44
55277;BME280;41136;51.478;-2.610;2023-07-22T03:32:46;100385.02;;;18.49;93.39
55277;BME280;41136;51.478;-2.610;2023-07-22T03:35:10;100386.31;;;17.58;94.94
55277;BME280;41136;51.478;-2.610;2023-07-22T03:37:35;100387.03;;;17.82;93.29
55277;BME280;41136;51.478;-2.610;2023-07-22T03:40:00;100387.68;;;18.35;93.38
55277;BME280;41136;51.478;-2.610;2023-07-22T03:42:25;100384.06;;;17.64;93.32
55277;BME280;41136;51.478;-2.610;2023-07-22T03:44:51;100381.45;;;18.52;92.92
55277;BME280;41136;51.478;-2.610;2023-07-22T03:47:16;100378.59;;;18.21;92.89
55277;BME280;41136;51.478;-2.610;2023-07-22T03:49:41;100377.17;;;18.37;92.07
55277;BME280;41136;51.478;-2.610;2023-07-22T03:52:07;100378.42;;;17.80;92.58
55277;BME280;41136;51.478;-2.610;2023-07-22T03:54:32;100376.40;;;18.12;92.37
55277;BME280;41136;51.478;-2.610;2023-07-22T03:56:58;100376.58;;;18.47;92.54
55277;BME280;41136;51.478;-2.610;2023-07-22T03:59:23;100375.36;;;18.34;93.83
55277;BME280;41136;51.478;-2.610;2023-07-22T04:01:48;100381.36;;;17.89;94.89
55277;BME280;41136;51.478;-2.610;2023-07-22T04:04:14;100377.39;;;17.74;95.91
55277;BME280;41136;51.478;-2.610;2023-07-22T04:06:39;100371.05;;;17.11;98.05
55277;BME280;41136;51.478;-2.610;2023-07-22T04:09:04;100374.67;;;18.00;96.49
55277;BME280;41136;51.478;-2.610;2023-07-22T04:11:29;100376.52;;;17.22;98.54
55277;BME280;41136;51.478;-2.610;2023-07-22T04:13:55;100376.64;;;16.73;100.00
55277;BME280;41136;51.478;-2.610;2023-07-22T04:16:20;100374.62;;;17.13;100.00
55277;BME280;41136;51.478;-2.610;2023-07-22T04:18:45;100365.82;;;17.46;100.00
55277;BME280;41136;51.478;-2.610;2023-07-22T04:21:11;100363.69;;;16.90;100.00
55277;BME280;41136;51.478;-2.610;2023-07-22T04:23:36;100359.27;;;16.82;100.00
55277;BME280;41136;51.478;-2.610;2023-07-22T04:26:02;100357.49;;;16.94;100.00
55277;BME280;41136;51.478;-2.610;2023-07-22T04:28:27;100351.46;;;17.46;100.00
55277;BME280;41136;51.478;-2.610;2023-07-22T04:30:56;100346.32;;;16.86;100.00
55277;BME280;41136;51.478;-2.610;2023-07-22T04:33:17;100344.09;;;16.60;100.00
55277;BME280;41136;51.478;-2.610;2023-07-22T04:35:42;100343.37;;;17.11;100.00
55277;BME280;41136;51.478;-2.610;2023-07-22T04:38:08;100342.87;;;17.35;100.00
55277;BME280;41136;51.478;-2.610;2023-07-22T04:40:33;100339.95;;;17.39;100.00
55277;BME280;41136;51.478;-2.610;2023-07-22T04:42:58;100335.77;;;16.31;100.00
55277;BME280;41136;51.478;-2.610;2023-07-22T04:45:24;100333.29;;;17.13;100.00
55277;BME280;41136;51.478;-2.610;2023-07-22T04:47:49;100329.80;;;17.15;100.00
55277;BME280;41136;51.478;-2.610;2023-07-22T04:50:14;100329.42;;;17.29;100.00
55277;BME280;41136;51.478;-2.610;2023-07-22T04:52:42;100322.97;;;17.72;100.00
55277;BME280;41136;51.478;-2.610;2023-07-22T04:55:06;100320.08;;;17.63;100.00
55277;BME280;41136;51.478;-2.610;2023-07-22T04:57:30;100319.85;;;17.63;100.00
55277;BME280;41136;51.478;-2.610;2023-07-22T04:59:55;100316.97;;;17.84;100.00
55277;BME280;41136;51.478;-2.610;2023-07-22T05:02:21;100320.38;;;17.59;100.00
55277;BME280;41136;51.478;-2.610;2023-07-22T05:04:46;100317.76;;;17.48;100.00
55277;BME280;41136;51.478;-2.610;2023-07-22T05:07:11;100314.93;;;17.65;100.00
55277;BME280;41136;51.478;-2.610;2023-07-22T05:09:37;100312.97;;;17.86;100.00
55277;BME280;41136;51.478;-2.610;2023-07-22T05:12:02;100312.86;;;18.05;100.00
55277;BME280;41136;51.478;-2.610;2023-07-22T05:14:27;100310.06;;;17.85;100.00
55277;BME280;41136;51.478;-2.610;2023-07-22T05:16:53;100308.66;;;17.74;100.00
55277;BME280;41136;51.478;-2.610;2023-07-22T05:19:18;100300.82;;;18.03;100.00
55277;BME280;41136;51.478;-2.610;2023-07-22T05:21:43;100305.01;;;17.61;100.00
55277;BME280;41136;51.478;-2.610;2023-07-22T05:24:08;100308.45;;;17.24;100.00
55277;BME280;41136;51.478;-2.610;2023-07-22T05:26:34;100305.74;;;17.59;100.00
55277;BME280;41136;51.478;-2.610;2023-07-22T05:28:59;100302.18;;;17.79;100.00
55277;BME280;41136;51.478;-2.610;2023-07-22T05:31:25;100299.64;;;18.05;100.00
55277;BME280;41136;51.478;-2.610;2023-07-22T05:33:51;100302.46;;;18.27;100.00
55277;BME280;41136;51.478;-2.610;2023-07-22T05:36:16;100309.86;;;16.88;100.00
55277;BME280;41136;51.478;-2.610;2023-07-22T05:38:41;100296.45;;;17.86;100.00
55277;BME280;41136;51.478;-2.610;2023-07-22T05:41:06;100290.01;;;17.71;100.00
55277;BME280;41136;51.478;-2.610;2023-07-22T05:43:32;100288.50;;;17.98;100.00
55277;BME280;41136;51.478;-2.610;2023-07-22T05:45:57;100288.01;;;17.54;100.00
55277;BME280;41136;51.478;-2.610;2023-07-22T05:48:22;100278.46;;;17.95;100.00
55277;BME280;41136;51.478;-2.610;2023-07-22T05:50:47;100278.74;;;17.89;100.00
55277;BME280;41136;51.478;-2.610;2023-07-22T05:53:13;100275.35;;;17.58;100.00
55277;BME280;41136;51.478;-2.610;2023-07-22T05:55:38;100276.74;;;16.88;100.00
55277;BME280;41136;51.478;-2.610;2023-07-22T05:58:03;100273.99;;;17.60;100.00
55277;BME280;41136;51.478;-2.610;2023-07-22T06:00:29;100271.77;;;17.44;100.00
55277;BME280;41136;51.478;-2.610;2023-07-22T06:02:54;100268.41;;;17.48;100.00
55277;BME280;41136;51.478;-2.610;2023-07-22T06:05:20;100260.15;;;18.00;100.00
55277;BME280;41136;51.478;-2.610;2023-07-22T06:07:45;100261.51;;;18.13;100.00
55277;BME280;41136;51.478;-2.610;2023-07-22T06:10:10;100268.73;;;17.76;100.00
55277;BME280;41136;51.478;-2.610;2023-07-22T06:12:35;100267.34;;;17.59;100.00
55277;BME280;41136;51.478;-2.610;2023-07-22T06:15:00;100271.64;;;17.38;100.00
55277;BME280;41136;51.478;-2.610;2023-07-22T06:17:26;100268.22;;;17.37;100.00
55277;BME280;41136;51.478;-2.610;2023-07-22T06:19:51;100267.21;;;17.70;100.00
55277;BME280;41136;51.478;-2.610;2023-07-22T06:22:16;100271.80;;;17.65;100.00
55277;BME280;41136;51.478;-2.610;2023-07-22T06:24:42;100274.33;;;17.02;100.00
55277;BME280;41136;51.478;-2.610;2023-07-22T06:27:07;100272.66;;;17.65;100.00
55277;BME280;41136;51.478;-2.610;2023-07-22T06:29:32;100280.88;;;16.42;100.00
55277;BME280;41136;51.478;-2.610;2023-07-22T06:31:58;100275.46;;;17.00;100.00
55277;BME280;41136;51.478;-2.610;2023-07-22T06:34:23;100262.77;;;17.19;100.00
55277;BME280;41136;51.478;-2.610;2023-07-22T06:36:48;100258.96;;;17.19;100.00
55277;BME280;41136;51.478;-2.610;2023-07-22T06:39:13;100257.53;;;17.28;100.00
55277;BME280;41136;51.478;-2.610;2023-07-22T06:41:39;100259.51;;;17.32;100.00
55277;BME280;41136;51.478;-2.610;2023-07-22T06:44:05;100258.19;;;16.80;100.00
55277;BME280;41136;51.478;-2.610;2023-07-22T06:46:30;100244.50;;;17.16;100.00
55277;BME280;41136;51.478;-2.610;2023-07-22T06:48:55;100240.49;;;17.25;100.00
55277;BME280;41136;51.478;-2.610;2023-07-22T06:51:20;100237.20;;;17.30;100.00
55277;BME280;41136;51.478;-2.610;2023-07-22T06:53:46;100248.83;;;16.35;100.00
55277;BME280;41136;51.478;-2.610;2023-07-22T06:56:12;100241.44;;;16.80;100.00
55277;BME280;41136;51.478;-2.610;2023-07-22T06:58:37;100236.95;;;17.75;100.00
55277;BME280;41136;51.478;-2.610;2023-07-22T07:01:02;100237.02;;;17.70;100.00
55277;BME280;41136;51.478;-2.610;2023-07-22T07:03:28;100234.08;;;17.57;100.00
55277;BME280;41136;51.478;-2.610;2023-07-22T07:05:53;100231.45;;;17.28;100.00
55277;BME280;41136;51.478;-2.610;2023-07-22T07:08:18;100234.82;;;17.07;100.00
55277;BME280;41136;51.478;-2.610;2023-07-22T07:10:44;100231.43;;;18.35;98.79
55277;BME280;41136;51.478;-2.610;2023-07-22T07:13:09;100225.35;;;18.25;97.94
55277;BME280;41136;51.478;-2.610;2023-07-22T07:15:34;100225.02;;;17.28;98.63
55277;BME280;41136;51.478;-2.610;2023-07-22T07:18:00;100228.85;;;17.11;100.00
55277;BME280;41136;51.478;-2.610;2023-07-22T07:20:25;100231.97;;;16.91;100.00
55277;BME280;41136;51.478;-2.610;2023-07-22T07:22:50;100225.01;;;17.37;100.00
55277;BME280;41136;51.478;-2.610;2023-07-22T07:25:16;100221.93;;;17.40;99.71
55277;BME280;41136;51.478;-2.610;2023-07-22T07:27:41;100226.92;;;18.05;98.28
55277;BME280;41136;51.478;-2.610;2023-07-22T07:30:07;100223.73;;;17.99;97.89
55277;BME280;41136;51.478;-2.610;2023-07-22T07:32:32;100226.30;;;17.66;98.98
55277;BME280;41136;51.478;-2.610;2023-07-22T07:34:57;100219.60;;;17.94;99.11
55277;BME280;41136;51.478;-2.610;2023-07-22T07:37:22;100217.78;;;18.05;98.46
55277;BME280;41136;51.478;-2.610;2023-07-22T07:39:48;100215.14;;;18.25;98.47
55277;BME280;41136;51.478;-2.610;2023-07-22T07:42:13;100214.67;;;18.32;98.34
55277;BME280;41136;51.478;-2.610;2023-07-22T07:44:38;100212.76;;;18.68;96.80
55277;BME280;41136;51.478;-2.610;2023-07-22T07:47:04;100212.33;;;18.55;97.12
55277;BME280;41136;51.478;-2.610;2023-07-22T07:49:29;100216.02;;;17.86;97.68
55277;BME280;41136;51.478;-2.610;2023-07-22T07:51:55;100212.11;;;18.34;98.22
55277;BME280;41136;51.478;-2.610;2023-07-22T07:54:20;100212.71;;;18.30;99.03
55277;BME280;41136;51.478;-2.610;2023-07-22T07:56:45;100211.35;;;18.53;98.10
55277;BME280;41136;51.478;-2.610;2023-07-22T07:59:10;100212.05;;;18.26;98.27
55277;BME280;41136;51.478;-2.610;2023-07-22T08:01:36;100210.42;;;18.53;99.15
55277;BME280;41136;51.478;-2.610;2023-07-22T08:04:01;100216.22;;;16.05;100.00
55277;BME280;41136;51.478;-2.610;2023-07-22T08:06:26;100214.27;;;17.98;100.00
55277;BME280;41136;51.478;-2.610;2023-07-22T08:08:51;100213.35;;;17.88;100.00
55277;BME280;41136;51.478;-2.610;2023-07-22T08:11:17;100210.10;;;18.30;100.00
55277;BME280;41136;51.478;-2.610;2023-07-22T08:13:43;100211.61;;;17.25;100.00
55277;BME280;41136;51.478;-2.610;2023-07-22T08:16:09;100207.49;;;18.30;100.00
55277;BME280;41136;51.478;-2.610;2023-07-22T08:18:33;100205.71;;;17.25;100.00
55277;BME280;41136;51.478;-2.610;2023-07-22T08:20:58;100203.85;;;17.44;100.00
55277;BME280;41136;51.478;-2.610;2023-07-22T08:23:23;100205.85;;;17.15;100.00
55277;BME280;41136;51.478;-2.610;2023-07-22T08:25:49;100204.29;;;17.19;100.00
55277;BME280;41136;51.478;-2.610;2023-07-22T08:28:14;100201.08;;;17.24;100.00
55277;BME280;41136;51.478;-2.610;2023-07-22T08:30:39;100197.43;;;17.89;100.00
55277;BME280;41136;51.478;-2.610;2023-07-22T08:33:04;100193.50;;;17.54;100.00
55277;BME280;41136;51.478;-2.610;2023-07-22T08:35:30;100192.77;;;17.71;100.00
55277;BME280;41136;51.478;-2.610;2023-07-22T08:37:55;100194.82;;;17.97;100.00
55277;BME280;41136;51.478;-2.610;2023-07-22T08:40:20;100190.42;;;17.92;100.00
55277;BME280;41136;51.478;-2.610;2023-07-22T08:42:46;100186.41;;;18.06;100.00
55277;BME280;41136;51.478;-2.610;2023-07-22T08:45:12;100190.14;;;17.20;100.00
55277;BME280;41136;51.478;-2.610;2023-07-22T08:47:40;100190.31;;;17.67;100.00
55277;BME280;41136;51.478;-2.610;2023-07-22T08:50:04;100187.80;;;18.27;100.00
55277;BME280;41136;51.478;-2.610;2023-07-22T08:52:28;100184.85;;;18.18;100.00
55277;BME280;41136;51.478;-2.610;2023-07-22T08:54:53;100186.41;;;17.85;100.00
55277;BME280;41136;51.478;-2.610;2023-07-22T08:57:19;100181.75;;;17.87;100.00
55277;BME280;41136;51.478;-2.610;2023-07-22T08:59:43;100180.74;;;17.92;100.00
55277;BME280;41136;51.478;-2.610;2023-07-22T09:02:12;100174.32;;;18.22;100.00
55277;BME280;41136;51.478;-2.610;2023-07-22T09:04:34;100167.60;;;18.65;100.00
55277;BME280;41136;51.478;-2.610;2023-07-22T09:06:59;100166.83;;;18.46;100.00
55277;BME280;41136;51.478;-2.610;2023-07-22T09:09:25;100164.28;;;18.25;100.00
55277;BME280;41136;51.478;-2.610;2023-07-22T09:11:50;100160.41;;;18.54;100.00
55277;BME280;41136;51.478;-2.610;2023-07-22T09:14:18;100162.47;;;18.73;100.00
55277;BME280;41136;51.478;-2.610;2023-07-22T09:16:41;100160.21;;;18.46;100.00
55277;BME280;41136;51.478;-2.610;2023-07-22T09:19:06;100159.13;;;18.92;100.00
55277;BME280;41136;51.478;-2.610;2023-07-22T09:21:31;100157.85;;;18.40;100.00
55277;BME280;41136;51.478;-2.610;2023-07-22T09:23:56;100153.18;;;18.32;100.00
55277;BME280;41136;51.478;-2.610;2023-07-22T09:26:22;100154.35;;;18.81;100.00
55277;BME280;41136;51.478;-2.610;2023-07-22T09:28:49;100150.10;;;18.26;100.00
55277;BME280;41136;51.478;-2.610;2023-07-22T09:31:13;100152.11;;;18.56;100.00
55277;BME280;41136;51.478;-2.610;2023-07-22T09:33:38;100152.39;;;18.38;100.00
55277;BME280;41136;51.478;-2.610;2023-07-22T09:36:04;100144.87;;;18.45;100.00
55277;BME280;41136;51.478;-2.610;2023-07-22T09:38:28;100141.38;;;18.33;100.00
55277;BME280;41136;51.478;-2.610;2023-07-22T09:40:54;100137.94;;;18.41;100.00
55277;BME280;41136;51.478;-2.610;2023-07-22T09:43:19;100142.25;;;18.36;100.00
55277;BME280;41136;51.478;-2.610;2023-07-22T09:45:47;100136.73;;;18.54;100.00
55277;BME280;41136;51.478;-2.610;2023-07-22T09:48:10;100129.79;;;17.87;100.00
55277;BME280;41136;51.478;-2.610;2023-07-22T09:50:36;100128.92;;;18.23;100.00
55277;BME280;41136;51.478;-2.610;2023-07-22T09:53:01;100123.50;;;18.01;100.00
55277;BME280;41136;51.478;-2.610;2023-07-22T09:55:28;100124.74;;;18.37;100.00
55277;BME280;41136;51.478;-2.610;2023-07-22T09:57:53;100121.39;;;18.50;100.00
55277;BME280;41136;51.478;-2.610;2023-07-22T10:00:17;100115.60;;;18.30;100.00
55277;BME280;41136;51.478;-2.610;2023-07-22T10:02:43;100113.63;;;18.07;100.00
55277;BME280;41136;51.478;-2.610;2023-07-22T10:05:10;100108.77;;;18.56;100.00
55277;BME280;41136;51.478;-2.610;2023-07-22T10:07:33;100100.55;;;18.64;100.00
55277;BME280;41136;51.478;-2.610;2023-07-22T10:09:58;100103.11;;;17.67;100.00
55277;BME280;41136;51.478;-2.610;2023-07-22T10:12:24;100098.23;;;18.11;100.00
55277;BME280;41136;51.478;-2.610;2023-07-22T10:14:49;100092.98;;;18.93;100.00
55277;BME280;41136;51.478;-2.610;2023-07-22T10:17:14;100096.71;;;18.44;100.00
55277;BME280;41136;51.478;-2.610;2023-07-22T10:19:39;100088.42;;;18.43;100.00
55277;BME280;41136;51.478;-2.610;2023-07-22T10:22:05;100084.21;;;18.30;100.00
55277;BME280;41136;51.478;-2.610;2023-07-22T10:24:29;100085.49;;;18.50;100.00
55277;BME280;41136;51.478;-2.610;2023-07-22T10:26:55;100077.20;;;18.16;100.00
55277;BME280;41136;51.478;-2.610;2023-07-22T10:29:20;100071.43;;;18.36;100.00
55277;BME280;41136;51.478;-2.610;2023-07-22T10:31:46;100066.08;;;17.35;100.00
55277;BME280;41136;51.478;-2.610;2023-07-22T10:34:12;100056.76;;;17.39;100.00
55277;BME280;41136;51.478;-2.610;2023-07-22T10:36:37;100050.21;;;17.84;100.00
55277;BME280;41136;51.478;-2.610;2023-07-22T10:39:02;100050.87;;;17.20;100.00
55277;BME280;41136;51.478;-2.610;2023-07-22T10:41:28;100051.51;;;17.87;100.00
55277;BME280;41136;51.478;-2.610;2023-07-22T10:43:54;100051.68;;;17.31;100.00
55277;BME280;41136;51.478;-2.610;2023-07-22T10:48:44;100040.95;;;17.45;100.00
55277;BME280;41136;51.478;-2.610;2023-07-22T10:51:11;100042.30;;;16.53;100.00
55277;BME280;41136;51.478;-2.610;2023-07-22T10:53:41;100035.82;;;17.02;100.00
55277;BME280;41136;51.478;-2.610;2023-07-22T10:56:05;100030.51;;;17.28;100.00
55277;BME280;41136;51.478;-2.610;2023-07-22T10:58:25;100028.26;;;16.80;100.00
55277;BME280;41136;51.478;-2.610;2023-07-22T11:00:51;100028.28;;;16.90;100.00
55277;BME280;41136;51.478;-2.610;2023-07-22T11:03:19;100023.40;;;16.93;100.00
55277;BME280;41136;51.478;-2.610;2023-07-22T11:05:47;100019.17;;;17.22;100.00
55277;BME280;41136;51.478;-2.610;2023-07-22T11:08:07;100020.08;;;17.48;100.00
55277;BME280;41136;51.478;-2.610;2023-07-22T11:10:32;100015.38;;;17.43;100.00
55277;BME280;41136;51.478;-2.610;2023-07-22T11:12:59;100021.51;;;17.91;100.00
55277;BME280;41136;51.478;-2.610;2023-07-22T11:15:23;100019.17;;;17.82;100.00
55277;BME280;41136;51.478;-2.610;2023-07-22T11:17:48;100017.49;;;18.46;100.00
55277;BME280;41136;51.478;-2.610;2023-07-22T11:20:13;100008.32;;;18.10;100.00
55277;BME280;41136;51.478;-2.610;2023-07-22T11:22:39;100004.79;;;18.23;100.00
55277;BME280;41136;51.478;-2.610;2023-07-22T11:25:05;99996.55;;;17.97;100.00
55277;BME280;41136;51.478;-2.610;2023-07-22T11:27:29;99993.64;;;17.74;100.00
55277;BME280;41136;51.478;-2.610;2023-07-22T11:29:58;99984.72;;;17.91;100.00
55277;BME280;41136;51.478;-2.610;2023-07-22T11:32:20;99989.58;;;18.35;100.00
55277;BME280;41136;51.478;-2.610;2023-07-22T11:34:45;99984.17;;;18.41;100.00
55277;BME280;41136;51.478;-2.610;2023-07-22T11:37:11;99982.42;;;18.32;100.00
55277;BME280;41136;51.478;-2.610;2023-07-22T11:39:35;99967.34;;;18.10;100.00
55277;BME280;41136;51.478;-2.610;2023-07-22T11:42:01;99971.25;;;18.04;100.00
55277;BME280;41136;51.478;-2.610;2023-07-22T11:44:27;99965.90;;;18.18;100.00
55277;BME280;41136;51.478;-2.610;2023-07-22T11:46:55;99973.81;;;18.30;100.00
55277;BME280;41136;51.478;-2.610;2023-07-22T11:49:23;99964.86;;;18.52;100.00
55277;BME280;41136;51.478;-2.610;2023-07-22T11:51:43;99957.55;;;18.35;100.00
55277;BME280;41136;51.478;-2.610;2023-07-22T11:54:08;99947.83;;;18.16;100.00
55277;BME280;41136;51.478;-2.610;2023-07-22T11:56:33;99952.62;;;17.84;100.00
55277;BME280;41136;51.478;-2.610;2023-07-22T11:58:58;99947.36;;;18.73;100.00
55277;BME280;41136;51.478;-2.610;2023-07-22T12:01:23;99939.17;;;17.93;100.00
55277;BME280;41136;51.478;-2.610;2023-07-22T12:03:54;99937.42;;;18.13;100.00
55277;BME280;41136;51.478;-2.610;2023-07-22T12:06:15;99941.24;;;18.18;100.00
55277;BME280;41136;51.478;-2.610;2023-07-22T12:08:44;99937.56;;;18.19;100.00
55277;BME280;41136;51.478;-2.610;2023-07-22T12:11:04;99936.03;;;18.70;100.00
55277;BME280;41136;51.478;-2.610;2023-07-22T12:13:36;99927.92;;;18.25;100.00
55277;BME280;41136;51.478;-2.610;2023-07-22T12:16:00;99926.05;;;18.51;100.00
55277;BME280;41136;51.478;-2.610;2023-07-22T12:18:20;99930.40;;;18.41;100.00
55277;BME280;41136;51.478;-2.610;2023-07-22T12:20:46;99920.13;;;18.61;100.00
55277;BME280;41136;51.478;-2.610;2023-07-22T12:23:11;99920.38;;;18.11;100.00
55277;BME280;41136;51.478;-2.610;2023-07-22T12:25:36;99917.45;;;18.12;100.00
55277;BME280;41136;51.478;-2.610;2023-07-22T12:28:01;99912.58;;;17.82;100.00
55277;BME280;41136;51.478;-2.610;2023-07-22T12:30:27;99907.11;;;18.85;100.00